Time;durP1;ratioP1;P1;durP2;ratioP2;P2;SDS_P1;SDS_P2;PMS_P1;PMS_P2;Temp;Humidity;BMP_temperature;BMP_pressure;BME280_temperature;BME280_humidity;BME280_pressure;Samples;Min_cycle;Max_cycle;Signal;HPM_P1;HPM_P2
2022/06/19 00:02:07;;;;;;;3.35;2.60;;;;;;;22.32;63.22;100313.25;4959405;28;20698;-75
2022/06/19 00:04:35;;;;;;;3.03;2.33;;;;;;;22.27;63.51;100309.38;4967502;28;20261;-75
2022/06/19 00:07:02;;;;;;;5.13;2.58;;;;;;;22.20;63.76;100295.72;4962852;28;20220;-75
2022/06/19 00:09:28;;;;;;;4.43;2.20;;;;;;;22.14;64.02;100300.00;4958158;28;20238;-75
2022/06/19 00:11:55;;;;;;;3.15;2.15;;;;;;;22.09;64.18;100285.28;4963413;28;20216;-76
2022/06/19 00:14:22;;;;;;;5.40;2.58;;;;;;;22.05;64.50;100282.06;4964071;28;20680;-76
2022/06/19 00:16:50;;;;;;;4.05;2.40;;;;;;;22.01;64.61;100279.91;4966068;28;20218;-76
2022/06/19 00:19:16;;;;;;;4.05;2.22;;;;;;;21.98;64.49;100267.53;4960389;28;20219;-75
2022/06/19 00:21:45;;;;;;;2.65;2.42;;;;;;;21.97;65.01;100251.44;4962241;28;20642;-75
2022/06/19 00:24:12;;;;;;;3.30;2.35;;;;;;;21.93;64.93;100250.94;4962181;28;20618;-74
2022/06/19 00:26:38;;;;;;;3.63;2.40;;;;;;;21.90;64.96;100243.16;4964077;28;20454;-76
2022/06/19 00:29:05;;;;;;;6.60;2.80;;;;;;;21.87;65.19;100245.38;4965964;28;20234;-75
2022/06/19 00:31:31;;;;;;;2.70;2.30;;;;;;;21.83;65.35;100239.50;4962254;28;20697;-76
2022/06/19 00:33:58;;;;;;;3.67;2.30;;;;;;;21.80;65.37;100239.84;4964654;28;20207;-76
2022/06/19 00:36:26;;;;;;;3.80;2.75;;;;;;;21.78;65.52;100226.47;4959776;28;20232;-75
2022/06/19 00:38:54;;;;;;;3.55;2.40;;;;;;;21.74;65.52;100216.16;4962271;28;20342;-75
2022/06/19 00:41:21;;;;;;;2.83;2.33;;;;;;;21.71;65.70;100208.41;4959855;28;20218;-76
2022/06/19 00:43:56;;;;;;;2.60;2.40;;;;;;;21.68;65.66;100209.59;4957311;28;20254;-76
2022/06/19 00:46:43;;;;;;;3.60;2.72;;;;;;;21.67;65.77;100194.38;4965125;28;20274;-75
2022/06/19 00:49:12;;;;;;;3.70;2.47;;;;;;;21.67;65.85;100188.13;4965925;28;20203;-75
2022/06/19 00:51:39;;;;;;;3.45;2.58;;;;;;;21.67;65.64;100191.66;4966817;28;20215;-70
2022/06/19 00:54:08;;;;;;;4.30;2.50;;;;;;;21.64;65.85;100181.19;4956133;28;20200;-69
2022/06/19 00:56:34;;;;;;;3.33;2.40;;;;;;;21.61;65.76;100181.53;4954868;28;20213;-70
2022/06/19 00:59:03;;;;;;;2.75;2.15;;;;;;;21.60;66.04;100177.13;4958534;28;20668;-72
2022/06/19 01:01:32;;;;;;;2.95;2.63;;;;;;;21.58;66.09;100172.91;4954141;28;20243;-70
2022/06/19 01:04:03;;;;;;;3.10;2.80;;;;;;;21.54;65.87;100174.28;4956673;28;20220;-70
2022/06/19 01:06:31;;;;;;;3.42;2.85;;;;;;;21.50;65.97;100168.38;4994240;23;20597;-75
2022/06/19 01:08:58;;;;;;;2.38;2.17;;;;;;;21.43;66.23;100157.44;4982269;28;20219;-72
2022/06/19 01:11:31;;;;;;;4.88;3.00;;;;;;;21.40;66.19;100157.78;4987783;28;20210;-72
2022/06/19 01:13:58;;;;;;;3.63;2.55;;;;;;;21.37;66.42;100150.00;4981848;28;20205;-74
2022/06/19 01:16:25;;;;;;;4.23;2.63;;;;;;;21.36;66.47;100148.31;4987952;28;20230;-73
2022/06/19 01:18:51;;;;;;;3.60;2.75;;;;;;;21.34;66.68;100138.69;4983216;28;20210;-74
2022/06/19 01:21:25;;;;;;;3.53;2.57;;;;;;;21.34;66.66;100149.53;4979726;28;20216;-73
2022/06/19 01:24:01;;;;;;;4.75;2.50;;;;;;;21.30;66.58;100146.34;4984050;28;20339;-75
2022/06/19 01:26:34;;;;;;;6.57;2.85;;;;;;;21.27;66.67;100145.88;4982199;28;20233;-74
2022/06/19 01:29:01;;;;;;;3.57;2.77;;;;;;;21.22;66.84;100145.53;4980396;28;20218;-74
2022/06/19 01:31:34;;;;;;;3.90;2.80;;;;;;;21.19;66.97;100141.28;4983231;28;20299;-75
2022/06/19 01:34:26;;;;;;;5.13;2.40;;;;;;;21.16;67.11;100130.81;4983567;28;20213;-72
2022/06/19 01:36:54;;;;;;;5.50;2.90;;;;;;;21.12;67.33;100121.38;4983313;28;20294;-75
2022/06/19 01:39:22;;;;;;;4.40;2.83;;;;;;;21.08;66.96;100120.03;4979142;28;20214;-75
2022/06/19 01:41:51;;;;;;;4.80;2.83;;;;;;;21.02;67.22;100115.31;4981704;28;20244;-74
2022/06/19 01:44:17;;;;;;;4.13;2.83;;;;;;;20.97;67.57;100121.25;4976615;28;20711;-73
2022/06/19 01:46:44;;;;;;;3.63;2.57;;;;;;;20.95;67.63;100120.63;4983263;28;20720;-71
2022/06/19 01:49:10;;;;;;;6.07;2.70;;;;;;;20.91;67.70;100104.91;4979288;28;20638;-75
2022/06/19 01:51:38;;;;;;;3.27;2.70;;;;;;;20.87;67.78;100106.28;4979979;28;20218;-75
2022/06/19 01:54:09;;;;;;;4.17;2.97;;;;;;;20.80;67.73;100098.84;4978943;28;20216;-75
2022/06/19 01:56:36;;;;;;;4.63;2.47;;;;;;;20.74;67.74;100085.19;4982685;28;20613;-74
2022/06/19 01:59:07;;;;;;;2.87;2.57;;;;;;;20.69;68.16;100080.31;4977159;28;20239;-74
2022/06/19 02:01:36;;;;;;;5.23;2.90;;;;;;;20.67;68.13;100076.09;4977899;28;20213;-74
2022/06/19 02:04:06;;;;;;;5.57;2.83;;;;;;;20.62;68.24;100090.13;4978075;28;20261;-73
2022/06/19 02:06:40;;;;;;;4.30;2.67;;;;;;;20.59;68.45;100081.53;4984278;28;20242;-74
2022/06/19 02:09:08;;;;;;;5.03;2.40;;;;;;;20.59;68.56;100084.25;4980600;28;20212;-72
2022/06/19 02:11:35;;;;;;;3.17;2.60;;;;;;;20.58;68.47;100066.34;4985435;28;20203;-75
2022/06/19 02:14:02;;;;;;;4.40;2.43;;;;;;;20.58;68.50;100069.88;4981681;28;20638;-74
2022/06/19 02:16:30;;;;;;;2.87;2.60;;;;;;;20.59;68.70;100062.59;4984077;28;20232;-73
2022/06/19 02:18:57;;;;;;;2.73;2.20;;;;;;;20.58;68.45;100059.06;4982481;28;20231;-74
2022/06/19 02:21:36;;;;;;;2.97;2.20;;;;;;;20.57;68.59;100060.06;4984624;28;20214;-72
2022/06/19 02:24:03;;;;;;;4.83;2.70;;;;;;;20.57;68.47;100053.81;4981163;28;20232;-75
2022/06/19 02:26:30;;;;;;;4.80;2.40;;;;;;;20.55;68.41;100051.28;4984222;28;20232;-72
2022/06/19 02:28:57;;;;;;;3.03;2.17;;;;;;;20.53;68.42;100050.63;4980806;28;20214;-71
2022/06/19 02:31:24;;;;;;;2.63;2.40;;;;;;;20.52;68.34;100059.75;4979539;28;20213;-71
2022/06/19 02:33:56;;;;;;;3.77;2.53;;;;;;;20.49;68.32;100053.84;4978506;28;20202;-72
2022/06/19 02:36:36;;;;;;;2.70;2.17;;;;;;;20.41;68.47;100052.03;4979722;28;20235;-72
2022/06/19 02:39:16;;;;;;;3.87;2.80;;;;;;;20.37;68.42;100053.38;4976338;28;20212;-71
2022/06/19 02:41:50;;;;;;;2.60;2.20;;;;;;;20.32;68.86;100044.91;4985237;28;20346;-73
2022/06/19 02:44:16;;;;;;;3.77;2.57;;;;;;;20.29;68.80;100035.28;4976757;28;20246;-70
2022/06/19 02:46:43;;;;;;;4.07;2.40;;;;;;;20.26;68.93;100026.66;4985907;28;20226;-73
2022/06/19 02:49:11;;;;;;;6.90;2.73;;;;;;;20.22;69.14;100028.06;4985205;28;20206;-72
2022/06/19 02:51:37;;;;;;;2.90;2.37;;;;;;;20.19;69.09;100014.88;4986871;28;20214;-73
2022/06/19 02:54:04;;;;;;;4.73;2.43;;;;;;;20.15;69.21;100014.38;4981670;28;20213;-72
2022/06/19 02:56:30;;;;;;;4.17;2.60;;;;;;;20.11;69.31;100007.63;4979567;28;20241;-71
2022/06/19 02:58:57;;;;;;;2.97;2.27;;;;;;;20.08;69.60;100016.09;4981837;28;20218;-70
2022/06/19 03:01:23;;;;;;;5.13;2.50;;;;;;;20.05;69.46;100020.00;4980537;28;20210;-72
2022/06/19 03:03:50;;;;;;;3.80;2.30;;;;;;;20.02;69.73;100014.09;4975947;28;20324;-70
2022/06/19 03:06:18;;;;;;;4.57;3.10;;;;;;;19.98;69.68;100016.28;4983967;28;20240;-72
2022/06/19 03:08:44;;;;;;;3.00;2.30;;;;;;;19.95;69.88;100018.50;4980717;28;20559;-72
2022/06/19 03:11:11;;;;;;;3.83;2.33;;;;;;;19.89;69.87;100014.59;4985646;28;20206;-72
2022/06/19 03:13:37;;;;;;;2.70;2.23;;;;;;;19.84;70.35;99999.94;4982605;28;20209;-72
2022/06/19 03:16:07;;;;;;;4.40;2.30;;;;;;;19.80;70.24;99994.03;4986674;28;20230;-72
2022/06/19 03:18:34;;;;;;;3.20;2.13;;;;;;;19.75;70.26;99993.72;4984599;28;20632;-71
2022/06/19 03:21:01;;;;;;;2.70;2.50;;;;;;;19.71;70.58;100000.47;4974863;28;20217;-71
2022/06/19 03:23:29;;;;;;;3.83;2.43;;;;;;;19.67;70.65;99991.03;4978546;28;20221;-73
2022/06/19 03:25:55;;;;;;;3.77;2.40;;;;;;;19.62;70.93;99985.28;4977592;28;21110;-72
2022/06/19 03:28:22;;;;;;;4.23;2.30;;;;;;;19.59;70.98;99986.47;4981695;28;20220;-72
2022/06/19 03:30:51;;;;;;;8.57;2.50;;;;;;;19.57;71.14;99987.66;4985038;28;20218;-73
2022/06/19 03:33:18;;;;;;;2.37;2.20;;;;;;;19.55;71.15;99986.97;4981236;28;20603;-73
2022/06/19 03:35:44;;;;;;;4.43;3.00;;;;;;;19.51;71.36;99981.09;4986102;28;20226;-72
2022/06/19 03:38:11;;;;;;;2.90;2.57;;;;;;;19.49;71.39;99993.91;4979580;28;20215;-73
2022/06/19 03:40:39;;;;;;;3.33;2.50;;;;;;;19.49;71.43;99993.06;4977096;28;20216;-73
2022/06/19 03:43:05;;;;;;;3.67;2.53;;;;;;;19.48;71.36;100002.16;4984795;28;20215;-73
2022/06/19 03:45:32;;;;;;;3.83;2.60;;;;;;;19.44;71.48;99990.84;4982523;28;20234;-72
2022/06/19 03:47:58;;;;;;;4.03;2.60;;;;;;;19.43;71.60;99994.56;4979239;28;20201;-69
2022/06/19 03:50:25;;;;;;;2.97;2.27;;;;;;;19.41;71.82;99992.03;4982130;28;20205;-71
2022/06/19 03:52:51;;;;;;;5.60;2.90;;;;;;;19.41;71.78;99972.28;4979996;28;20218;-73
2022/06/19 03:55:18;;;;;;;3.70;2.50;;;;;;;19.42;72.08;99971.28;4982099;28;20597;-71
2022/06/19 03:57:46;;;;;;;3.70;2.70;;;;;;;19.41;71.88;99966.88;4983749;28;20448;-71
2022/06/19 04:00:16;;;;;;;3.17;2.67;;;;;;;19.42;71.79;99955.06;4982118;28;20205;-73
2022/06/19 04:02:43;;;;;;;5.23;2.37;;;;;;;19.44;71.98;99963.84;4981172;28;20218;-73
2022/06/19 04:05:10;;;;;;;2.87;2.57;;;;;;;19.46;71.76;99952.88;4978157;28;20228;-72
2022/06/19 04:07:43;;;;;;;5.03;2.87;;;;;;;19.47;71.63;99947.31;4978819;28;20212;-73
2022/06/19 04:10:10;;;;;;;2.67;2.40;;;;;;;19.48;71.26;99934.66;4985814;28;20217;-72
2022/06/19 04:12:36;;;;;;;2.77;2.57;;;;;;;19.47;71.57;99924.88;4984087;28;20218;-72
2022/06/19 04:15:05;;;;;;;2.87;2.40;;;;;;;19.48;71.56;99923.84;4978321;28;20222;-73
2022/06/19 04:17:32;;;;;;;3.70;2.60;;;;;;;19.47;71.52;99939.22;4979670;28;20620;-72
2022/06/19 04:19:58;;;;;;;3.60;2.90;;;;;;;19.48;71.59;99953.56;4984410;28;20203;-73
2022/06/19 04:22:25;;;;;;;4.57;2.67;;;;;;;19.49;71.30;99945.28;4984828;28;20226;-73
2022/06/19 04:24:51;;;;;;;2.97;2.77;;;;;;;19.49;71.49;99939.88;4984019;28;20234;-72
2022/06/19 04:27:18;;;;;;;4.20;2.60;;;;;;;19.50;71.67;99932.66;4976899;28;20218;-70
2022/06/19 04:29:44;;;;;;;5.70;2.70;;;;;;;19.50;71.65;99932.66;4975139;28;20603;-73
2022/06/19 04:32:13;;;;;;;3.13;2.53;;;;;;;19.50;71.73;99928.09;4983622;28;20206;-72
2022/06/19 04:34:39;;;;;;;3.53;2.43;;;;;;;19.48;71.84;99929.25;4983709;28;20293;-71
2022/06/19 04:37:06;;;;;;;3.00;2.57;;;;;;;19.46;71.83;99926.72;4983286;28;20575;-72
2022/06/19 04:39:33;;;;;;;4.33;2.97;;;;;;;19.46;71.83;99912.38;4983015;28;20214;-71
2022/06/19 04:42:00;;;;;;;3.33;3.00;;;;;;;19.42;71.90;99904.59;4987985;28;20376;-73
2022/06/19 04:44:27;;;;;;;4.50;2.60;;;;;;;19.42;72.22;99890.25;4986179;28;20234;-73
2022/06/19 04:46:54;;;;;;;4.00;3.33;;;;;;;19.41;72.48;99883.19;4984308;28;20828;-70
2022/06/19 04:49:22;;;;;;;5.00;2.90;;;;;;;19.39;72.49;99877.09;4982059;28;20696;-73
2022/06/19 04:51:48;;;;;;;3.40;3.10;;;;;;;19.39;72.60;99867.16;4987184;28;20213;-71
2022/06/19 04:54:15;;;;;;;6.07;3.07;;;;;;;19.41;72.98;99859.72;4984991;28;20206;-72
2022/06/19 04:56:41;;;;;;;3.17;2.77;;;;;;;19.41;73.27;99870.53;4984634;28;20256;-73
2022/06/19 04:59:08;;;;;;;4.73;3.17;;;;;;;19.43;73.38;99884.69;4983699;28;20205;-73
2022/06/19 05:01:37;;;;;;;3.67;2.87;;;;;;;19.46;73.46;99923.19;4988133;28;20907;-72
2022/06/19 05:04:06;;;;;;;6.30;3.10;;;;;;;19.46;73.67;99942.06;4987428;28;20242;-72
2022/06/19 05:06:34;;;;;;;3.23;2.60;;;;;;;19.47;73.39;99935.66;4982594;28;20253;-72
2022/06/19 05:09:00;;;;;;;4.23;2.90;;;;;;;19.47;73.72;99928.41;4987579;28;20214;-72
2022/06/19 05:11:31;;;;;;;3.37;3.07;;;;;;;19.50;73.50;99929.97;4984269;28;20217;-71
2022/06/19 05:13:58;;;;;;;3.30;3.00;;;;;;;19.50;73.48;99932.66;4985111;28;20594;-73
2022/06/19 05:16:25;;;;;;;3.97;3.03;;;;;;;19.54;73.46;99936.69;4987973;28;20222;-72
2022/06/19 05:18:54;;;;;;;5.40;3.33;;;;;;;19.57;73.04;99942.59;4984784;28;20221;-71
2022/06/19 05:21:21;;;;;;;5.00;3.57;;;;;;;19.58;72.98;99963.19;4976041;28;20276;-72
2022/06/19 05:23:51;;;;;;;4.93;3.27;;;;;;;19.59;72.65;99959.47;4987616;28;20210;-72
2022/06/19 05:26:20;;;;;;;2.87;2.43;;;;;;;19.60;72.27;99960.31;4986955;28;20236;-71
2022/06/19 05:28:50;;;;;;;3.17;2.60;;;;;;;19.62;72.07;99971.78;4984129;28;20605;-72
2022/06/19 05:31:17;;;;;;;3.73;2.77;;;;;;;19.64;72.05;99977.88;4986688;28;20269;-72
2022/06/19 05:33:43;;;;;;;3.80;2.20;;;;;;;19.68;71.98;99963.00;4990113;28;20734;-72
2022/06/19 05:36:10;;;;;;;2.60;2.40;;;;;;;19.70;71.72;99948.31;4982020;28;20226;-70
2022/06/19 05:38:36;;;;;;;2.37;2.17;;;;;;;19.76;71.50;99968.38;4984472;28;20206;-72
2022/06/19 05:41:04;;;;;;;3.00;1.90;;;;;;;19.80;70.89;99972.44;4980671;28;20226;-72
2022/06/19 05:43:33;;;;;;;2.57;1.90;;;;;;;19.88;70.65;99980.53;4985709;28;20280;-72
2022/06/19 05:46:01;;;;;;;2.17;1.50;;;;;;;19.95;70.42;99959.03;4983392;28;20701;-73
2022/06/19 05:48:30;;;;;;;2.83;1.90;;;;;;;20.03;70.02;99948.22;4984406;28;20630;-74
2022/06/19 05:50:59;;;;;;;4.00;1.87;;;;;;;20.10;69.24;99946.47;4984188;28;20238;-72
2022/06/19 05:53:26;;;;;;;2.00;1.80;;;;;;;20.15;68.93;99951.34;4981083;28;20207;-73
2022/06/19 05:55:53;;;;;;;2.23;1.73;;;;;;;20.24;68.95;99950.31;4982859;28;20614;-72
2022/06/19 05:58:21;;;;;;;3.17;1.73;;;;;;;20.33;68.59;99939.28;4988713;28;20208;-72
2022/06/19 06:00:47;;;;;;;4.90;1.80;;;;;;;20.44;68.36;99968.66;4986056;28;20229;-72
2022/06/19 06:03:16;;;;;;;3.10;1.70;;;;;;;20.57;67.95;99959.13;4987346;28;20694;-73
2022/06/19 06:05:42;;;;;;;2.80;1.80;;;;;;;20.68;67.47;99945.19;4985116;28;20819;-73
2022/06/19 06:08:09;;;;;;;2.07;1.87;;;;;;;20.78;66.61;99954.75;4984971;28;20201;-74
2022/06/19 06:10:35;;;;;;;1.80;1.70;;;;;;;20.91;66.66;99961.44;4981861;28;20206;-73
2022/06/19 06:13:02;;;;;;;3.10;1.80;;;;;;;20.99;66.00;99959.50;4987456;28;20204;-72
2022/06/19 06:15:30;;;;;;;4.83;1.90;;;;;;;21.11;65.43;99958.06;4981763;28;20256;-73
2022/06/19 06:17:59;;;;;;;2.87;1.93;;;;;;;21.22;65.03;99969.50;4976738;28;20206;-72
2022/06/19 06:20:26;;;;;;;3.13;1.65;;;;;;;21.32;64.59;99973.63;4984918;28;20548;-74
2022/06/19 06:22:52;;;;;;;2.05;1.50;;;;;;;21.44;64.51;99969.50;4986648;28;20203;-73
2022/06/19 06:25:19;;;;;;;2.55;1.90;;;;;;;21.59;64.09;99974.09;4982433;28;20246;-73
2022/06/19 06:27:46;;;;;;;3.45;1.67;;;;;;;21.70;63.79;99996.16;4986573;28;20214;-73
2022/06/19 06:30:13;;;;;;;2.00;1.70;;;;;;;21.83;62.92;99995.53;4984960;28;20681;-73
2022/06/19 06:32:41;;;;;;;1.73;1.60;;;;;;;21.93;62.17;99996.09;4985693;28;20221;-74
2022/06/19 06:35:09;;;;;;;3.15;1.65;;;;;;;22.00;61.78;99985.38;4986516;28;20238;-74
2022/06/19 06:37:36;;;;;;;3.20;1.67;;;;;;;22.09;61.23;99976.94;4983408;28;20733;-73
2022/06/19 06:40:04;;;;;;;1.92;1.55;;;;;;;22.16;60.37;99977.88;4984825;28;20208;-74
2022/06/19 06:42:31;;;;;;;2.13;1.52;;;;;;;22.23;60.04;99982.53;4982272;28;20304;-73
2022/06/19 06:44:57;;;;;;;2.33;1.73;;;;;;;22.32;59.74;99984.13;4985352;28;20224;-73
2022/06/19 06:47:24;;;;;;;1.92;1.73;;;;;;;22.37;59.25;99993.41;4982078;28;20239;-74
2022/06/19 06:49:52;;;;;;;3.63;1.70;;;;;;;22.44;58.77;99979.91;4984548;28;20212;-73
2022/06/19 06:52:18;;;;;;;2.20;1.20;;;;;;;22.49;58.30;99981.03;4983659;28;20215;-73
2022/06/19 06:54:45;;;;;;;3.42;1.70;;;;;;;22.57;57.82;99976.53;4986912;28;20207;-73
2022/06/19 06:57:11;;;;;;;4.32;1.70;;;;;;;22.64;57.27;99988.28;4984270;28;20207;-73
2022/06/19 06:59:38;;;;;;;3.10;1.48;;;;;;;22.71;56.89;99983.78;4981623;28;20210;-72
2022/06/19 07:02:06;;;;;;;2.67;1.80;;;;;;;22.79;56.36;99983.69;4982313;28;20200;-73
2022/06/19 07:04:33;;;;;;;2.80;1.70;;;;;;;22.85;55.53;99962.03;4985377;28;20203;-74
2022/06/19 07:07:02;;;;;;;2.97;1.80;;;;;;;22.89;54.53;99961.66;4986004;23;20725;-84
2022/06/19 07:09:28;;;;;;;5.43;1.58;;;;;;;22.89;54.22;99976.09;4977920;28;20211;-85
2022/06/19 07:11:55;;;;;;;6.28;1.80;;;;;;;22.92;53.66;99961.28;4973303;28;20224;-85
2022/06/19 07:14:21;;;;;;;3.92;1.50;;;;;;;22.93;52.74;99961.06;4977446;28;20207;-84
2022/06/19 07:16:48;;;;;;;6.32;2.08;;;;;;;22.96;52.66;99968.81;4965099;28;20592;-83
2022/06/19 07:19:14;;;;;;;4.93;1.80;;;;;;;22.98;52.24;99950.47;4975249;28;20203;-86
2022/06/19 07:21:41;;;;;;;4.20;1.80;;;;;;;23.00;51.47;99975.56;4974160;28;20319;-84
2022/06/19 07:24:09;;;;;;;5.00;1.90;;;;;;;23.02;51.52;99987.06;4973736;28;20212;-85
2022/06/19 07:26:36;;;;;;;3.13;1.48;;;;;;;23.06;51.30;99977.50;4973892;28;20231;-85
2022/06/19 07:29:02;;;;;;;5.47;1.80;;;;;;;23.08;50.72;99972.72;4967584;28;20218;-85
2022/06/19 07:31:29;;;;;;;5.32;2.00;;;;;;;23.15;50.65;99970.06;4962141;28;20267;-84
2022/06/19 07:33:55;;;;;;;3.65;1.65;;;;;;;23.17;50.41;99967.97;4954346;28;20320;-85
2022/06/19 07:36:24;;;;;;;4.22;1.67;;;;;;;23.27;50.39;99984.81;4959941;28;20219;-85
2022/06/19 07:38:51;;;;;;;5.70;1.70;;;;;;;23.37;50.16;99990.75;4973611;28;20615;-85
2022/06/19 07:41:20;;;;;;;4.13;1.58;;;;;;;23.45;49.75;99973.47;4973530;28;20190;-85
2022/06/19 07:43:50;;;;;;;6.20;1.80;;;;;;;23.49;48.99;99967.41;4965142;28;20297;-83
2022/06/19 07:46:17;;;;;;;6.30;1.70;;;;;;;23.53;49.09;99967.91;4964123;28;20235;-85
2022/06/19 07:51:28;;;;;;;5.05;1.85;;;;;;;23.64;48.14;99980.97;4967236;28;20414;-84
2022/06/19 07:53:54;;;;;;;4.35;1.88;;;;;;;23.69;48.22;99985.78;4972566;28;20216;-84
2022/06/19 07:56:22;;;;;;;4.40;1.67;;;;;;;23.76;47.87;99981.25;4970517;28;20207;-85
2022/06/19 07:58:49;;;;;;;7.82;1.90;;;;;;;23.81;47.55;99979.63;4968320;28;20584;-85
2022/06/19 08:01:16;;;;;;;4.05;1.90;;;;;;;23.82;46.84;99972.31;4972191;28;20204;-85
2022/06/19 08:03:42;;;;;;;8.25;1.92;;;;;;;23.83;46.84;99985.69;4972282;28;20208;-84
2022/06/19 08:06:09;;;;;;;6.63;1.90;;;;;;;23.82;47.07;99994.91;4980969;28;20227;-85
2022/06/19 08:08:36;;;;;;;4.38;1.70;;;;;;;23.86;46.71;100001.59;4979877;28;20236;-84
2022/06/19 08:11:04;;;;;;;5.78;1.80;;;;;;;23.91;46.74;99995.56;4992033;28;20274;-85
2022/06/19 08:13:33;;;;;;;3.30;1.83;;;;;;;24.04;46.92;99982.06;4991964;28;20258;-86
2022/06/19 08:16:03;;;;;;;4.85;1.50;;;;;;;24.20;45.81;99972.72;4997904;28;20214;-84
2022/06/19 08:18:30;;;;;;;4.13;1.83;;;;;;;24.31;45.91;99968.63;4991622;28;20238;-84
2022/06/19 08:20:56;;;;;;;3.47;2.00;;;;;;;24.43;45.38;99981.44;4995065;28;20248;-84
2022/06/19 08:23:23;;;;;;;4.15;2.10;;;;;;;24.51;45.48;99964.13;4985474;28;20230;-85
2022/06/19 08:25:50;;;;;;;5.95;2.17;;;;;;;24.64;45.51;99963.31;4988576;28;20229;-85
2022/06/19 08:28:18;;;;;;;4.93;2.22;;;;;;;24.79;45.00;99940.31;4997394;28;20202;-85
2022/06/19 08:30:46;;;;;;;6.65;2.40;;;;;;;24.89;44.38;99940.75;4992277;28;20215;-85
2022/06/19 08:33:13;;;;;;;3.50;2.20;;;;;;;24.97;44.17;99938.91;4995189;28;20234;-85
2022/06/19 08:35:45;;;;;;;7.25;2.53;;;;;;;25.01;44.14;99937.44;4990539;28;20211;-85
2022/06/19 08:38:17;;;;;;;5.13;2.13;;;;;;;25.05;43.86;99925.94;4992245;28;20214;-85
2022/06/19 08:41:07;;;;;;;4.85;2.45;;;;;;;25.16;44.80;99933.47;4993962;28;20211;-84
2022/06/19 08:44:02;;;;;;;3.90;2.15;;;;;;;25.35;44.51;99959.06;4973919;28;20218;-84
2022/06/19 08:46:40;;;;;;;4.82;2.15;;;;;;;25.53;44.03;99994.72;4988212;28;20230;-84
2022/06/19 08:49:23;;;;;;;7.60;2.20;;;;;;;25.69;44.09;100009.84;4995483;28;20555;-84
2022/06/19 08:51:58;;;;;;;6.25;2.67;;;;;;;25.79;43.28;100015.72;4989160;28;20586;-84
2022/06/19 08:54:37;;;;;;;4.38;2.30;;;;;;;25.93;43.73;100035.63;4985342;28;20195;-85
2022/06/19 08:57:11;;;;;;;6.22;2.60;;;;;;;26.03;43.31;100035.19;4990830;28;20238;-85
2022/06/19 08:59:54;;;;;;;6.13;2.15;;;;;;;26.12;43.01;100045.69;4995707;28;20217;-86
2022/06/19 09:02:33;;;;;;;4.68;2.10;;;;;;;26.15;42.40;100050.72;4992696;28;20241;-84
2022/06/19 09:08:09;;;;;;;5.30;2.30;;;;;;;26.10;41.88;100027.84;4994163;28;20251;-86
2022/06/19 09:10:45;;;;;;;3.90;2.00;;;;;;;26.03;41.89;100040.63;4998442;28;20730;-85
2022/06/19 09:13:28;;;;;;;3.90;2.20;;;;;;;26.01;41.85;100040.84;4989762;28;20223;-86
2022/06/19 09:16:01;;;;;;;7.22;2.17;;;;;;;26.01;41.54;100043.59;5001718;28;20266;-86
2022/06/19 09:18:39;;;;;;;7.65;2.08;;;;;;;25.98;41.78;100049.44;4980837;28;20190;-85
2022/06/19 09:21:10;;;;;;;6.05;2.13;;;;;;;26.01;42.01;100062.69;4981967;28;20647;-85
2022/06/19 09:23:55;;;;;;;7.15;2.33;;;;;;;26.08;41.79;100063.53;4981948;28;20204;-86
2022/06/19 09:26:27;;;;;;;7.35;1.88;;;;;;;26.08;41.51;100073.59;4979809;28;20282;-86
2022/06/19 09:28:58;;;;;;;6.05;2.35;;;;;;;26.14;42.03;100086.41;4980038;28;20295;-86
2022/06/19 09:31:30;;;;;;;7.00;2.60;;;;;;;26.20;41.64;100105.50;4986102;28;20276;-85
2022/06/19 09:34:03;;;;;;;5.95;2.60;;;;;;;26.23;41.48;100120.59;4985559;28;20663;-85
2022/06/19 09:36:36;;;;;;;6.32;2.13;;;;;;;26.27;41.65;100122.72;4993330;28;20203;-86
2022/06/19 09:39:10;;;;;;;5.78;2.50;;;;;;;26.28;42.22;100148.13;4981248;28;20218;-86
2022/06/19 09:41:41;;;;;;;6.70;2.40;;;;;;;26.32;41.75;100163.06;4989598;28;20227;-85
2022/06/19 09:44:16;;;;;;;9.00;2.75;;;;;;;26.33;41.74;100178.41;4993898;28;20215;-85
2022/06/19 09:46:47;;;;;;;10.85;3.30;;;;;;;26.27;42.18;100182.78;4986943;28;20215;-84
2022/06/19 09:49:21;;;;;;;7.32;2.55;;;;;;;26.25;42.48;100173.94;4985212;28;20208;-86
2022/06/19 09:51:56;;;;;;;7.45;2.50;;;;;;;26.21;41.97;100180.88;4990139;28;20656;-86
2022/06/19 09:54:31;;;;;;;9.88;3.08;;;;;;;26.19;42.28;100172.06;4990173;28;20613;-85
2022/06/19 09:57:02;;;;;;;9.18;3.10;;;;;;;26.17;42.16;100170.56;4992675;28;20203;-84
2022/06/19 09:59:35;;;;;;;7.65;2.90;;;;;;;26.17;42.31;100165.94;4981649;28;20212;-84
2022/06/19 10:02:08;;;;;;;7.68;2.50;;;;;;;26.21;42.02;100150.00;4992478;28;20235;-84
2022/06/19 10:04:43;;;;;;;8.02;2.92;;;;;;;26.19;41.64;100147.47;4987095;28;20608;-85
2022/06/19 10:07:15;;;;;;;6.30;2.42;;;;;;;26.15;41.90;100159.91;4986858;28;20238;-84
2022/06/19 10:09:55;;;;;;;6.50;2.85;;;;;;;26.15;42.07;100151.72;4981286;28;20219;-85
2022/06/19 10:12:29;;;;;;;6.25;2.33;;;;;;;26.13;41.85;100136.59;4986749;28;20231;-85
2022/06/19 10:15:01;;;;;;;9.73;2.92;;;;;;;26.14;42.43;100146.47;4984560;28;20215;-86
2022/06/19 10:17:31;;;;;;;9.18;2.65;;;;;;;26.17;42.33;100149.56;4989309;28;20212;-85
2022/06/19 10:20:04;;;;;;;7.68;2.63;;;;;;;26.21;42.09;100139.94;4985951;28;20211;-85
2022/06/19 10:22:50;;;;;;;7.78;2.67;;;;;;;26.30;42.00;100128.84;4985027;28;20310;-85
2022/06/19 10:25:35;;;;;;;8.68;2.97;;;;;;;26.33;42.07;100147.53;4979773;28;20673;-85
2022/06/19 10:28:15;;;;;;;10.55;3.08;;;;;;;26.37;41.40;100168.72;4988903;28;20200;-85
2022/06/19 10:30:50;;;;;;;10.15;2.80;;;;;;;26.30;40.77;100177.97;4988850;28;20204;-85
2022/06/19 10:33:27;;;;;;;9.68;2.95;;;;;;;26.26;41.52;100166.59;4993988;28;20226;-85
2022/06/19 10:36:01;;;;;;;10.98;3.30;;;;;;;26.24;41.19;100169.53;4992162;28;20215;-84
2022/06/19 10:38:48;;;;;;;8.20;3.00;;;;;;;26.26;41.46;100175.63;4987879;28;20200;-85
2022/06/19 10:44:15;;;;;;;8.70;2.55;;;;;;;26.23;41.20;100202.50;4989392;28;20278;-85
2022/06/19 10:46:42;;;;;;;7.88;2.60;;;;;;;26.24;41.36;100205.03;4987432;28;20746;-85
2022/06/19 10:49:20;;;;;;;9.35;2.97;;;;;;;26.25;41.62;100209.44;4992074;28;20276;-85
2022/06/19 10:51:59;;;;;;;6.13;2.83;;;;;;;26.25;41.19;100195.78;4983428;28;20334;-86
2022/06/19 10:54:52;;;;;;;5.90;2.20;;;;;;;26.28;41.29;100200.84;4990578;28;20222;-86
2022/06/19 10:57:32;;;;;;;9.25;3.10;;;;;;;26.30;40.79;100195.19;4973656;28;20234;-85
2022/06/19 10:59:59;;;;;;;7.10;2.83;;;;;;;26.34;40.94;100187.41;4993293;28;20207;-84
2022/06/19 11:05:27;;;;;;;9.00;2.80;;;;;;;26.42;41.24;100193.50;4990640;28;20211;-85
2022/06/19 11:07:57;;;;;;;7.90;2.72;;;;;;;26.47;41.08;100206.53;4979294;28;20234;-84
2022/06/19 11:10:36;;;;;;;8.98;3.13;;;;;;;26.56;41.14;100208.81;4983400;28;20244;-85
2022/06/19 11:13:03;;;;;;;8.38;2.30;;;;;;;26.70;40.77;100193.25;4981202;28;20664;-86
2022/06/19 11:15:32;;;;;;;6.40;2.47;;;;;;;26.80;40.25;100196.38;4980533;28;20218;-86
2022/06/19 11:18:18;;;;;;;6.30;2.70;;;;;;;26.90;40.37;100190.47;4989936;28;20214;-86
2022/06/19 11:20:59;;;;;;;8.13;2.40;;;;;;;27.01;40.03;100199.94;4984309;28;20229;-86
2022/06/19 11:23:31;;;;;;;6.97;2.17;;;;;;;27.08;39.66;100190.66;4992818;28;20718;-86
2022/06/19 11:26:05;;;;;;;6.53;2.83;;;;;;;27.15;39.47;100185.19;4990611;28;20196;-86
2022/06/19 11:28:51;;;;;;;11.00;2.75;;;;;;;27.23;39.76;100190.41;4989704;28;20207;-86
2022/06/19 11:31:22;;;;;;;9.82;2.72;;;;;;;27.23;39.07;100177.56;4989199;28;20199;-86
2022/06/19 11:33:52;;;;;;;6.50;2.50;;;;;;;27.25;38.95;100155.47;4991115;28;20203;-84
2022/06/19 11:36:31;;;;;;;6.68;2.75;;;;;;;27.24;38.91;100149.16;4986854;28;20854;-85
2022/06/19 11:39:01;;;;;;;7.22;2.72;;;;;;;27.24;39.02;100154.63;4988723;28;20238;-85
2022/06/19 11:41:31;;;;;;;8.75;2.67;;;;;;;27.20;38.67;100149.84;4986519;28;20233;-85
2022/06/19 11:44:13;;;;;;;5.93;2.10;;;;;;;27.14;38.94;100145.22;4984731;28;20196;-84
2022/06/19 11:46:47;;;;;;;7.57;2.70;;;;;;;27.07;38.93;100125.28;4988269;28;20219;-85
2022/06/19 11:49:26;;;;;;;6.30;2.40;;;;;;;27.10;39.17;100100.25;4985641;28;20693;-85
2022/06/19 11:51:54;;;;;;;7.72;2.55;;;;;;;27.14;39.28;100123.34;4984478;28;20228;-86
2022/06/19 11:54:29;;;;;;;6.95;2.40;;;;;;;27.18;39.57;100127.34;4989978;28;20213;-85